createdAt,value
2023-04-24T00:01:25.966Z,23.94
2023-04-24T00:03:31.071Z,23.92
2023-04-24T00:05:36.425Z,23.94
2023-04-24T00:07:41.523Z,23.92
2023-04-24T00:09:46.513Z,23.94
2023-04-24T00:11:51.517Z,23.92
2023-04-24T00:13:56.634Z,23.94
2023-04-24T00:16:01.718Z,23.95
2023-04-24T00:18:06.728Z,23.95
2023-04-24T00:20:11.901Z,23.96
2023-04-24T00:22:16.967Z,23.96
2023-04-24T00:24:21.974Z,23.96
2023-04-24T00:26:26.963Z,23.91
2023-04-24T00:28:31.939Z,23.94
2023-04-24T00:30:36.942Z,23.93
2023-04-24T00:32:41.955Z,23.88
2023-04-24T00:34:47.105Z,23.94
2023-04-24T00:36:52.286Z,23.93
2023-04-24T00:38:57.286Z,23.93
2023-04-24T00:41:02.282Z,23.89
2023-04-24T00:43:08.886Z,23.84
2023-04-24T00:45:15.109Z,23.9
2023-04-24T00:47:20.146Z,23.88
2023-04-24T00:49:25.154Z,23.87
2023-04-24T00:51:30.166Z,23.86
2023-04-24T00:53:35.189Z,23.86
2023-04-24T00:55:40.202Z,23.86
2023-04-24T00:57:45.156Z,23.85
2023-04-24T00:59:50.141Z,23.84
2023-04-24T01:01:55.127Z,23.84
2023-04-24T01:04:00.418Z,23.82
2023-04-24T01:06:06.371Z,23.79
2023-04-24T01:08:11.375Z,23.78
2023-04-24T01:10:16.353Z,23.81
2023-04-24T01:12:21.554Z,23.8
2023-04-24T01:14:26.569Z,23.81
2023-04-24T01:16:31.575Z,23.81
2023-04-24T01:18:36.668Z,23.79
2023-04-24T01:20:41.752Z,23.81
2023-04-24T01:22:46.726Z,23.8
2023-04-24T01:24:51.735Z,23.78
2023-04-24T01:26:56.710Z,23.79
2023-04-24T01:29:01.911Z,23.78
2023-04-24T01:31:07.013Z,23.78
2023-04-24T01:33:12.132Z,23.79
2023-04-24T01:35:17.153Z,23.79
2023-04-24T01:37:22.264Z,23.77
2023-04-24T01:39:27.244Z,23.78
2023-04-24T01:41:32.388Z,23.81
2023-04-24T01:43:37.448Z,23.82
2023-04-24T01:45:42.428Z,23.82
2023-04-24T01:47:47.476Z,23.81
2023-04-24T01:49:52.817Z,23.82
2023-04-24T01:51:57.815Z,23.81
2023-04-24T01:54:02.820Z,23.82
2023-04-24T01:56:07.815Z,23.82
2023-04-24T01:58:12.774Z,23.78
2023-04-24T02:00:17.745Z,23.73
2023-04-24T02:02:22.868Z,23.76
2023-04-24T02:05:09.702Z,23.78
2023-04-24T02:07:14.734Z,23.79
2023-04-24T02:09:19.699Z,23.79
2023-04-24T02:11:24.701Z,23.79
2023-04-24T02:13:29.727Z,23.77
2023-04-24T02:15:34.682Z,23.71
2023-04-24T02:17:39.685Z,23.75
2023-04-24T02:19:45.058Z,23.74
2023-04-24T02:21:50.132Z,23.74
2023-04-24T02:23:55.181Z,23.75
2023-04-24T02:26:00.145Z,23.75
2023-04-24T02:28:05.154Z,23.75
2023-04-24T02:30:10.128Z,23.69
2023-04-24T02:32:15.273Z,23.75
2023-04-24T02:34:20.755Z,23.75
2023-04-24T02:36:25.784Z,23.75
2023-04-24T02:38:30.754Z,23.73
2023-04-24T02:40:35.836Z,23.75
2023-04-24T02:42:40.864Z,23.75
2023-04-24T02:44:45.841Z,23.74
2023-04-24T02:46:50.840Z,23.74
2023-04-24T02:48:55.929Z,23.71
2023-04-24T02:51:00.914Z,23.67
2023-04-24T02:53:06.181Z,23.74
2023-04-24T02:55:11.126Z,23.73
2023-04-24T02:57:16.112Z,23.71
2023-04-24T02:59:21.129Z,23.71
2023-04-24T03:01:26.117Z,23.71
2023-04-24T03:03:31.307Z,23.69
2023-04-24T03:05:37.007Z,23.72
2023-04-24T03:07:42.073Z,23.69
2023-04-24T03:09:47.031Z,23.67
2023-04-24T03:11:52.076Z,23.71
2023-04-24T03:13:57.106Z,23.7
2023-04-24T03:16:02.120Z,23.69
2023-04-24T03:18:07.288Z,23.71
2023-04-24T03:20:12.397Z,23.69
2023-04-24T03:22:17.570Z,23.69
2023-04-24T03:24:22.565Z,23.69
2023-04-24T03:26:27.569Z,23.69
2023-04-24T03:28:32.608Z,23.69
2023-04-24T03:30:37.648Z,23.68
2023-04-24T03:32:42.695Z,23.68
2023-04-24T03:34:47.938Z,23.68
2023-04-24T03:36:52.919Z,23.67
2023-04-24T03:38:57.887Z,23.68
2023-04-24T03:41:02.855Z,23.68
2023-04-24T03:43:08.041Z,23.68
2023-04-24T03:45:13.048Z,23.69
2023-04-24T03:47:18.053Z,23.7
2023-04-24T03:49:23.090Z,23.7
2023-04-24T03:51:28.110Z,23.7
2023-04-24T03:53:33.210Z,23.68
2023-04-24T03:55:38.220Z,23.68
2023-04-24T03:57:43.345Z,23.69
2023-04-24T03:59:48.340Z,23.68
2023-04-24T04:01:53.367Z,23.67
2023-04-24T04:03:58.651Z,23.67
2023-04-24T04:06:04.336Z,23.6
2023-04-24T04:08:09.522Z,23.67
2023-04-24T04:10:14.519Z,23.68
2023-04-24T04:12:19.500Z,23.66
2023-04-24T04:14:24.520Z,23.66
2023-04-24T04:16:29.555Z,23.66
2023-04-24T04:18:34.737Z,23.66
2023-04-24T04:20:39.761Z,23.64
2023-04-24T04:22:44.824Z,23.6
2023-04-24T04:24:49.909Z,23.63
2023-04-24T04:26:54.899Z,23.65
2023-04-24T04:29:00.033Z,23.63
2023-04-24T04:31:05.057Z,23.63
2023-04-24T04:33:10.058Z,23.61
2023-04-24T04:35:15.233Z,23.59
2023-04-24T04:37:20.219Z,23.57
2023-04-24T04:39:25.309Z,23.62
2023-04-24T04:41:30.388Z,23.63
2023-04-24T04:43:35.326Z,23.62
2023-04-24T04:45:40.312Z,23.6
2023-04-24T04:47:45.520Z,23.62
2023-04-24T04:49:50.666Z,23.62
2023-04-24T04:51:55.719Z,23.63
2023-04-24T04:54:00.696Z,23.63
2023-04-24T04:56:05.787Z,23.58
2023-04-24T04:58:10.810Z,23.58
2023-04-24T05:00:15.842Z,23.65
2023-04-24T05:02:20.863Z,23.69
2023-04-24T05:04:26.246Z,23.72
2023-04-24T05:06:31.997Z,23.73
2023-04-24T05:08:37.016Z,23.8
2023-04-24T05:10:42.160Z,23.82
2023-04-24T05:12:47.275Z,23.79
2023-04-24T05:14:52.223Z,23.84
2023-04-24T05:16:57.431Z,23.91
2023-04-24T05:19:02.514Z,23.93
2023-04-24T05:21:07.567Z,23.95
2023-04-24T05:23:12.592Z,23.93
2023-04-24T05:25:17.669Z,23.96
2023-04-24T05:27:22.697Z,23.99
2023-04-24T05:29:27.688Z,24.02
2023-04-24T05:31:32.693Z,24.02
2023-04-24T05:33:37.882Z,24
2023-04-24T05:35:42.876Z,24.01
2023-04-24T05:37:47.894Z,24.03
2023-04-24T05:39:52.896Z,24.05
2023-04-24T05:41:57.964Z,24.05
2023-04-24T05:44:03.162Z,24.08
2023-04-24T05:46:08.196Z,24.08
2023-04-24T05:48:13.386Z,24.08
2023-04-24T05:50:18.393Z,24.07
2023-04-24T05:52:23.464Z,24.06
2023-04-24T05:54:28.539Z,24.03
2023-04-24T05:56:33.587Z,24.09
2023-04-24T05:58:38.603Z,24.1
2023-04-24T06:00:43.589Z,24.09
2023-04-24T06:02:48.695Z,24.13
2023-04-24T06:04:54.842Z,24.09
2023-04-24T06:07:00.316Z,24.14
2023-04-24T06:09:05.351Z,24.15
2023-04-24T06:11:10.335Z,24.13
2023-04-24T06:13:15.336Z,24.16
2023-04-24T06:15:20.338Z,24.18
2023-04-24T06:17:25.417Z,24.14
2023-04-24T06:19:30.606Z,24.2
2023-04-24T06:21:35.587Z,24.2
2023-04-24T06:23:40.578Z,24.18
2023-04-24T06:25:45.608Z,24.11
2023-04-24T06:27:50.598Z,24.1
2023-04-24T06:29:55.605Z,24.1
2023-04-24T06:32:00.713Z,24.07
2023-04-24T06:34:05.870Z,24.06
2023-04-24T06:36:11.457Z,24.05
2023-04-24T06:38:16.480Z,24.05
2023-04-24T06:40:21.560Z,23.98
2023-04-24T06:42:26.510Z,24.02
2023-04-24T06:44:31.562Z,24
2023-04-24T06:46:36.781Z,24
2023-04-24T06:48:45.043Z,23.99
2023-04-24T06:50:50.082Z,23.99
2023-04-24T06:52:55.110Z,23.99
2023-04-24T06:55:00.241Z,23.96
2023-04-24T06:57:05.276Z,23.98
2023-04-24T06:59:10.342Z,23.98
2023-04-24T07:01:15.394Z,23.96
2023-04-24T07:03:20.714Z,23.96
2023-04-24T07:05:26.298Z,23.92
2023-04-24T07:07:31.274Z,23.97
2023-04-24T07:09:36.388Z,23.96
2023-04-24T07:11:41.540Z,23.93
2023-04-24T07:13:46.585Z,23.94
2023-04-24T07:15:51.681Z,23.94
2023-04-24T07:17:57.109Z,23.94
2023-04-24T07:20:02.281Z,23.95
2023-04-24T07:22:07.306Z,23.9
2023-04-24T07:24:12.339Z,23.95
2023-04-24T07:26:17.396Z,23.95
2023-04-24T07:28:22.363Z,23.93
2023-04-24T07:30:27.720Z,23.89
2023-04-24T07:32:32.708Z,23.94
2023-04-24T07:34:37.746Z,23.93
2023-04-24T07:36:42.714Z,23.91
2023-04-24T07:38:47.736Z,23.93
2023-04-24T07:40:54.075Z,23.93
2023-04-24T07:42:59.055Z,23.94
2023-04-24T07:45:04.273Z,23.95
2023-04-24T07:47:09.270Z,23.95
2023-04-24T07:49:14.938Z,23.95
2023-04-24T07:51:22.650Z,23.96
2023-04-24T07:53:27.766Z,23.96
2023-04-24T07:55:32.768Z,23.95
2023-04-24T07:57:37.796Z,23.98
2023-04-24T07:59:42.950Z,23.93
2023-04-24T08:01:48.603Z,23.95
2023-04-24T08:03:53.809Z,23.99
2023-04-24T08:05:59.745Z,24
2023-04-24T08:08:05.410Z,24.01
2023-04-24T08:10:10.595Z,23.98
2023-04-24T08:12:15.729Z,24.01
2023-04-24T08:14:20.816Z,24
2023-04-24T08:16:25.858Z,24
2023-04-24T08:18:31.071Z,24.02
2023-04-24T08:20:36.172Z,24.04
2023-04-24T08:22:41.286Z,24.01
2023-04-24T08:24:46.279Z,24.04
2023-04-24T08:26:51.341Z,24.04
2023-04-24T08:28:56.368Z,24.04
2023-04-24T08:31:01.915Z,24.05
2023-04-24T08:33:07.073Z,24.05
2023-04-24T08:35:12.285Z,24.03
2023-04-24T08:37:17.455Z,24.04
2023-04-24T08:39:22.448Z,24.05
2023-04-24T08:41:27.489Z,24.02
2023-04-24T08:43:32.523Z,24.06
2023-04-24T08:45:37.582Z,24.03
2023-04-24T08:47:42.772Z,24.06
2023-04-24T08:49:48.016Z,24.07
2023-04-24T08:51:53.052Z,24.01
2023-04-24T08:53:58.158Z,24.06
2023-04-24T08:56:03.162Z,24.06
2023-04-24T08:58:08.207Z,24.02
2023-04-24T09:00:13.188Z,24.05
2023-04-24T09:02:18.591Z,24.07
2023-04-24T09:04:24.088Z,24.08
2023-04-24T09:06:30.189Z,24.09
2023-04-24T09:08:35.323Z,24.09
2023-04-24T09:10:40.341Z,24.07
2023-04-24T09:12:45.354Z,24.1
2023-04-24T09:14:50.469Z,24.1
2023-04-24T09:16:55.628Z,24.05
2023-04-24T09:19:01.063Z,24.12
2023-04-24T09:21:06.052Z,24.08
2023-04-24T09:23:11.119Z,24.14
2023-04-24T09:25:16.126Z,24.14
2023-04-24T09:27:21.163Z,24.12
2023-04-24T09:29:26.245Z,24.15
2023-04-24T09:31:31.377Z,24.16
2023-04-24T09:33:36.672Z,24.12
2023-04-24T09:35:41.710Z,24.17
2023-04-24T09:37:46.736Z,24.17
2023-04-24T09:39:51.830Z,24.16
2023-04-24T09:41:56.858Z,24.15
2023-04-24T09:44:01.898Z,24.2
2023-04-24T09:46:06.910Z,24.2
2023-04-24T09:48:12.499Z,24.19
2023-04-24T09:50:17.623Z,24.14
2023-04-24T09:52:26.623Z,24.18
2023-04-24T09:54:31.637Z,24.2
2023-04-24T09:56:36.751Z,24.22
2023-04-24T09:58:41.758Z,24.21
2023-04-24T10:00:46.792Z,24.21
2023-04-24T10:02:51.892Z,24.2
2023-04-24T10:04:57.397Z,24.15
2023-04-24T10:07:03.345Z,24.12
2023-04-24T10:09:08.460Z,24.1
2023-04-24T10:11:13.504Z,23.94
2023-04-24T10:13:18.553Z,23.91
2023-04-24T10:15:23.572Z,23.85
2023-04-24T10:17:28.554Z,23.73
2023-04-24T10:19:33.639Z,23.77
2023-04-24T10:21:38.636Z,23.62
2023-04-24T10:23:43.695Z,23.44
2023-04-24T10:25:48.688Z,23.44
2023-04-24T10:27:53.648Z,23.45
2023-04-24T10:29:58.752Z,23.42
2023-04-24T10:32:03.775Z,23.51
2023-04-24T10:34:08.791Z,23.49
2023-04-24T10:36:13.905Z,23.4
2023-04-24T10:38:19.042Z,23.12
2023-04-24T10:40:24.137Z,23.06
2023-04-24T10:42:29.164Z,23.11
2023-04-24T10:44:34.154Z,23.2
2023-04-24T10:46:39.194Z,23.39
2023-04-24T10:48:44.338Z,23.46
2023-04-24T10:50:49.355Z,23.42
2023-04-24T10:52:54.371Z,23.57
2023-04-24T10:54:59.563Z,23.63
2023-04-24T10:57:04.726Z,23.66
2023-04-24T10:59:09.711Z,23.62
2023-04-24T11:01:14.816Z,23.55
2023-04-24T11:03:20.260Z,23.43
2023-04-24T11:05:25.647Z,23.32
2023-04-24T11:07:30.682Z,23.31
2023-04-24T11:09:36.015Z,23.26
2023-04-24T11:11:41.286Z,23.28
2023-04-24T11:13:46.405Z,23.27
2023-04-24T11:15:51.425Z,23.32
2023-04-24T11:17:56.554Z,23.43
2023-04-24T11:20:06.837Z,23.45
2023-04-24T11:22:31.510Z,23.4
2023-04-24T11:24:36.538Z,23.43
2023-04-24T11:26:41.586Z,23.37
2023-04-24T11:28:46.795Z,23.39
2023-04-24T11:30:51.836Z,23.43
2023-04-24T11:32:56.906Z,23.51
2023-04-24T11:35:02.135Z,23.48
2023-04-24T11:37:07.220Z,23.5
2023-04-24T11:39:12.238Z,23.4
2023-04-24T11:41:17.291Z,23.34
2023-04-24T11:43:22.420Z,23.32
2023-04-24T11:45:27.535Z,23.3
2023-04-24T11:47:32.552Z,23.28
2023-04-24T11:49:37.988Z,23.33
2023-04-24T11:51:51.324Z,23.41
2023-04-24T11:54:04.618Z,23.53
2023-04-24T11:56:09.682Z,23.57
2023-04-24T11:58:14.664Z,23.69
2023-04-24T12:00:19.848Z,23.67
2023-04-24T12:02:25.345Z,23.73
2023-04-24T12:04:31.575Z,23.69
2023-04-24T12:06:40.328Z,23.72
2023-04-24T12:08:45.380Z,23.67
2023-04-24T12:10:50.436Z,23.62
2023-04-24T12:12:55.433Z,23.49
2023-04-24T12:15:00.809Z,23.46
2023-04-24T12:17:06.446Z,23.3
2023-04-24T12:19:11.490Z,23.32
2023-04-24T12:21:16.564Z,23.25
2023-04-24T12:23:25.626Z,22.97
2023-04-24T12:25:30.630Z,23.02
2023-04-24T12:27:36.046Z,22.93
2023-04-24T12:29:41.059Z,22.87
2023-04-24T12:31:46.059Z,22.79
2023-04-24T12:33:51.455Z,22.77
2023-04-24T12:35:56.539Z,22.69
2023-04-24T12:38:01.632Z,22.68
2023-04-24T12:40:06.698Z,22.66
2023-04-24T12:42:12.116Z,22.55
2023-04-24T12:44:17.204Z,22.54
2023-04-24T12:46:22.713Z,22.59
2023-04-24T12:48:28.336Z,22.56
2023-04-24T12:50:33.489Z,22.62
2023-04-24T12:52:38.570Z,22.5
2023-04-24T12:54:43.673Z,22.57
2023-04-24T12:56:48.960Z,22.49
2023-04-24T12:58:54.045Z,22.64
2023-04-24T13:00:59.088Z,22.82
2023-04-24T13:03:04.621Z,22.92
2023-04-24T13:05:10.220Z,22.99
2023-04-24T13:07:15.514Z,23.03
2023-04-24T13:09:20.520Z,22.99
2023-04-24T13:11:25.558Z,22.97
2023-04-24T13:13:30.619Z,22.94
2023-04-24T13:15:35.836Z,22.92
2023-04-24T13:17:41.126Z,22.88
2023-04-24T13:19:46.320Z,22.83
2023-04-24T13:21:51.790Z,22.78
2023-04-24T13:23:56.945Z,22.8
2023-04-24T13:26:02.047Z,22.79
2023-04-24T13:28:07.196Z,22.8
2023-04-24T13:30:12.235Z,22.77
2023-04-24T13:32:17.574Z,22.74
2023-04-24T13:34:23.279Z,22.74
2023-04-24T13:36:28.450Z,22.72
2023-04-24T13:38:33.686Z,22.68
2023-04-24T13:40:38.764Z,22.65
2023-04-24T13:42:43.725Z,22.62
2023-04-24T13:44:48.850Z,22.56
2023-04-24T13:46:53.968Z,22.53
2023-04-24T13:48:59.198Z,22.5
2023-04-24T13:51:04.319Z,22.46
2023-04-24T13:53:09.534Z,22.44
2023-04-24T13:55:14.557Z,22.47
2023-04-24T13:57:19.559Z,22.57
2023-04-24T13:59:24.561Z,22.69
2023-04-24T14:01:29.593Z,22.78
2023-04-24T14:03:34.971Z,22.89
2023-04-24T14:05:40.610Z,22.95
2023-04-24T14:07:45.631Z,22.89
2023-04-24T14:09:50.711Z,22.8
2023-04-24T14:11:55.682Z,22.68
2023-04-24T14:14:00.718Z,22.6
2023-04-24T14:16:05.865Z,22.5
2023-04-24T14:18:11.081Z,22.43
2023-04-24T14:20:16.327Z,22.37
2023-04-24T14:22:21.347Z,22.29
2023-04-24T14:24:26.382Z,22.34
2023-04-24T14:26:31.441Z,22.48
2023-04-24T14:28:36.442Z,22.64
2023-04-24T14:30:41.587Z,22.8
2023-04-24T14:32:46.582Z,22.94
2023-04-24T14:34:51.840Z,23.06
2023-04-24T14:36:56.789Z,23.15
2023-04-24T14:39:01.854Z,23.26
2023-04-24T14:41:08.496Z,23.37
2023-04-24T14:43:17.889Z,23.44
2023-04-24T14:45:23.201Z,23.51
2023-04-24T14:47:28.274Z,23.5
2023-04-24T14:49:33.457Z,23.44
2023-04-24T14:51:38.456Z,23.43
2023-04-24T14:53:43.602Z,23.4
2023-04-24T14:55:49.522Z,23.35
2023-04-24T14:57:54.513Z,23.32
2023-04-24T14:59:59.550Z,23.33
2023-04-24T15:02:15.357Z,23.35
2023-04-24T15:04:27.674Z,23.37
2023-04-24T15:06:33.301Z,23.39
2023-04-24T15:08:38.322Z,23.38
2023-04-24T15:10:43.349Z,23.34
2023-04-24T15:12:48.358Z,23.34
2023-04-24T15:14:53.461Z,23.26
2023-04-24T15:16:58.545Z,23.25
2023-04-24T15:19:04.036Z,23.24
2023-04-24T15:21:09.052Z,23.25
2023-04-24T15:23:14.094Z,23.26
2023-04-24T15:25:19.145Z,23.28
2023-04-24T15:27:24.168Z,23.3
2023-04-24T15:29:29.208Z,23.33
2023-04-24T15:31:34.310Z,23.32
2023-04-24T15:33:39.457Z,23.32
2023-04-24T15:35:44.503Z,23.33
2023-04-24T15:37:49.513Z,23.38
2023-04-24T15:39:54.910Z,23.43
2023-04-24T15:41:59.952Z,23.44
2023-04-24T15:44:05.151Z,23.5
2023-04-24T15:46:10.177Z,23.54
2023-04-24T15:48:15.414Z,23.55
2023-04-24T15:50:20.472Z,23.57
2023-04-24T15:52:25.583Z,23.58
2023-04-24T15:54:30.607Z,23.59
2023-04-24T15:56:35.636Z,23.6
2023-04-24T15:58:40.629Z,23.6
2023-04-24T16:00:45.675Z,23.64
2023-04-24T16:02:50.785Z,23.68
2023-04-24T16:04:56.520Z,23.7
2023-04-24T16:07:02.293Z,23.74
2023-04-24T16:09:07.416Z,23.75
2023-04-24T16:11:12.502Z,23.77
2023-04-24T16:13:17.537Z,23.77
2023-04-24T16:15:22.535Z,23.8
2023-04-24T16:17:27.594Z,23.83
2023-04-24T16:19:32.736Z,23.87
2023-04-24T16:21:38.148Z,23.89
2023-04-24T16:23:43.340Z,23.92
2023-04-24T16:25:48.396Z,23.93
2023-04-24T16:27:53.405Z,23.93
2023-04-24T16:29:58.501Z,23.95
2023-04-24T16:32:03.596Z,23.94
2023-04-24T16:34:08.593Z,23.95
2023-04-24T16:36:13.684Z,23.95
2023-04-24T16:38:18.743Z,23.91
2023-04-24T16:40:23.786Z,23.93
2023-04-24T16:42:28.809Z,23.97
2023-04-24T16:44:34.328Z,23.98
2023-04-24T16:46:39.469Z,24
2023-04-24T16:48:44.719Z,24.01
2023-04-24T16:50:50.238Z,24.02
2023-04-24T16:52:55.269Z,24.04
2023-04-24T16:55:00.228Z,24.06
2023-04-24T16:57:05.265Z,24.04
2023-04-24T16:59:10.407Z,24.02
2023-04-24T17:01:15.406Z,24.02
2023-04-24T17:03:20.870Z,24.04
2023-04-24T17:05:26.638Z,24.07
2023-04-24T17:07:31.613Z,24.1
2023-04-24T17:09:36.612Z,24.09
2023-04-24T17:11:41.606Z,24.11
2023-04-24T17:13:46.809Z,24.13
2023-04-24T17:15:51.811Z,24.14
2023-04-24T17:17:56.806Z,24.14
2023-04-24T17:20:08.549Z,24.14
2023-04-24T17:22:28.473Z,24.15
2023-04-24T17:24:33.494Z,24.15
2023-04-24T17:26:38.634Z,24.17
2023-04-24T17:28:43.751Z,24.21
2023-04-24T17:30:49.201Z,24.23
2023-04-24T17:32:54.221Z,24.24
2023-04-24T17:34:59.421Z,24.26
2023-04-24T17:37:04.493Z,24.27
2023-04-24T17:39:09.529Z,24.26
2023-04-24T17:41:14.538Z,24.27
2023-04-24T17:43:19.612Z,24.29
2023-04-24T17:45:24.686Z,24.29
2023-04-24T17:47:29.702Z,24.31
2023-04-24T17:49:34.840Z,24.29
2023-04-24T17:51:39.960Z,24.3
2023-04-24T17:53:44.970Z,24.3
2023-04-24T17:55:49.952Z,24.3
2023-04-24T17:57:54.945Z,24.3
2023-04-24T17:59:59.948Z,24.31
2023-04-24T18:02:04.994Z,24.3
2023-04-24T18:04:10.062Z,24.28
2023-04-24T18:06:16.042Z,24.26
2023-04-24T18:08:21.131Z,24.25
2023-04-24T18:10:26.266Z,24.22
2023-04-24T18:12:31.332Z,24.2
2023-04-24T18:14:36.426Z,24.17
2023-04-24T18:16:41.521Z,24.14
2023-04-24T18:18:46.858Z,24.13
2023-04-24T18:20:52.599Z,24.11
2023-04-24T18:22:57.701Z,24.1
2023-04-24T18:25:06.043Z,24.13
2023-04-24T18:27:11.165Z,24.12
2023-04-24T18:29:16.229Z,24.16
2023-04-24T18:31:21.365Z,24.15
2023-04-24T18:33:26.477Z,24.16
2023-04-24T18:35:31.555Z,24.14
2023-04-24T18:37:36.772Z,24.15
2023-04-24T18:39:42.036Z,24.16
2023-04-24T18:41:47.129Z,24.16
2023-04-24T18:43:52.157Z,24.17
2023-04-24T18:45:57.188Z,24.15
2023-04-24T18:48:02.313Z,24.15
2023-04-24T18:50:07.576Z,24.15
2023-04-24T18:52:12.577Z,24.15
2023-04-24T18:54:17.628Z,24.14
2023-04-24T18:56:22.594Z,24.13
2023-04-24T18:58:27.569Z,24.13
2023-04-24T19:00:32.665Z,24.13
2023-04-24T19:02:37.957Z,24.16
2023-04-24T19:04:43.301Z,24.17
2023-04-24T19:06:48.380Z,24.16
2023-04-24T19:08:53.542Z,24.17
2023-04-24T19:10:58.946Z,24.13
2023-04-24T19:13:03.996Z,24.12
2023-04-24T19:15:09.032Z,24.1
2023-04-24T19:17:14.030Z,24.12
2023-04-24T19:19:19.135Z,24.12
2023-04-24T19:21:24.212Z,24.15
2023-04-24T19:23:29.218Z,24.13
2023-04-24T19:25:34.403Z,24.17
2023-04-24T19:27:39.367Z,24.17
2023-04-24T19:29:44.423Z,24.19
2023-04-24T19:31:49.575Z,24.19
2023-04-24T19:33:54.812Z,24.2
2023-04-24T19:35:59.842Z,24.23
2023-04-24T19:38:04.922Z,24.23
2023-04-24T19:40:09.936Z,24.21
2023-04-24T19:42:15.062Z,24.22
2023-04-24T19:44:23.860Z,24.22
2023-04-24T19:46:28.815Z,24.23
2023-04-24T19:48:34.093Z,24.26
2023-04-24T19:50:39.160Z,24.3
2023-04-24T19:52:47.008Z,24.32
2023-04-24T19:54:52.042Z,24.33
2023-04-24T19:56:57.126Z,24.33
2023-04-24T19:59:02.269Z,24.31
2023-04-24T20:01:07.369Z,24.3
2023-04-24T20:03:18.726Z,24.29
2023-04-24T20:05:37.839Z,24.29
2023-04-24T20:07:42.847Z,24.27
2023-04-24T20:09:47.839Z,24.28
2023-04-24T20:11:52.820Z,24.28
2023-04-24T20:13:57.846Z,24.26
2023-04-24T20:16:02.887Z,24.24
2023-04-24T20:18:08.233Z,24.24
2023-04-24T20:20:13.363Z,24.24
2023-04-24T20:22:18.537Z,24.22
2023-04-24T20:24:23.716Z,24.21
2023-04-24T20:26:28.750Z,24.19
2023-04-24T20:28:33.858Z,24.19
2023-04-24T20:30:38.874Z,24.16
2023-04-24T20:32:44.012Z,24.14
2023-04-24T20:34:49.277Z,24.13
2023-04-24T20:36:54.426Z,24.13
2023-04-24T20:38:59.470Z,24.1
2023-04-24T20:41:04.452Z,24.1
2023-04-24T20:43:09.452Z,24.08
2023-04-24T20:45:14.470Z,24.09
2023-04-24T20:47:19.467Z,24.09
2023-04-24T20:49:24.557Z,24.08
2023-04-24T20:51:29.652Z,24.09
2023-04-24T20:53:34.615Z,24.11
2023-04-24T20:55:39.654Z,24.12
2023-04-24T20:57:44.818Z,24.12
2023-04-24T20:59:49.909Z,24.11
2023-04-24T21:01:54.920Z,24.09
2023-04-24T21:04:00.187Z,24.08
2023-04-24T21:06:05.427Z,24.04
2023-04-24T21:08:10.422Z,24.02
2023-04-24T21:10:15.529Z,24.02
2023-04-24T21:12:20.599Z,24
2023-04-24T21:14:25.897Z,23.98
2023-04-24T21:16:30.951Z,23.96
2023-04-24T21:18:36.404Z,23.94
2023-04-24T21:20:41.554Z,23.94
2023-04-24T21:22:46.619Z,23.91
2023-04-24T21:24:51.681Z,23.9
2023-04-24T21:26:56.671Z,23.87
2023-04-24T21:29:01.916Z,23.86
2023-04-24T21:31:06.945Z,23.84
2023-04-24T21:33:11.988Z,23.83
2023-04-24T21:35:17.085Z,23.82
2023-04-24T21:37:22.214Z,23.79
2023-04-24T21:39:27.277Z,23.79
2023-04-24T21:41:32.294Z,23.78
2023-04-24T21:43:44.359Z,23.77
2023-04-24T21:45:53.687Z,23.75
2023-04-24T21:47:58.927Z,23.74
2023-04-24T21:50:04.248Z,23.74
2023-04-24T21:52:09.379Z,23.73
2023-04-24T21:54:14.384Z,23.73
2023-04-24T21:56:19.429Z,23.73
2023-04-24T21:58:24.424Z,23.72
2023-04-24T22:00:29.554Z,23.69
2023-04-24T22:02:35.468Z,23.68
2023-04-24T22:04:41.084Z,23.69
2023-04-24T22:06:46.715Z,23.68
2023-04-24T22:08:51.744Z,23.68
2023-04-24T22:10:56.754Z,23.68
2023-04-24T22:13:01.820Z,23.67
2023-04-24T22:15:06.826Z,23.64
2023-04-24T22:17:11.859Z,23.64
2023-04-24T22:19:16.929Z,23.63
2023-04-24T22:21:21.978Z,23.62
2023-04-24T22:23:27.066Z,23.6
2023-04-24T22:25:32.335Z,23.6
2023-04-24T22:27:37.334Z,23.58
2023-04-24T22:29:42.499Z,23.57
2023-04-24T22:31:47.542Z,23.57
2023-04-24T22:33:52.726Z,23.56
2023-04-24T22:35:57.762Z,23.55
2023-04-24T22:38:02.862Z,23.55
2023-04-24T22:40:07.955Z,23.53
2023-04-24T22:42:13.111Z,23.53
2023-04-24T22:44:18.164Z,23.52
2023-04-24T22:46:23.336Z,23.51
2023-04-24T22:48:28.412Z,23.49
2023-04-24T22:50:33.670Z,23.48
2023-04-24T22:52:38.797Z,23.49
2023-04-24T22:54:43.914Z,23.5
2023-04-24T22:56:48.940Z,23.49
2023-04-24T22:58:53.915Z,23.49
2023-04-24T23:00:59.078Z,23.48
2023-04-24T23:03:04.394Z,23.47
2023-04-24T23:05:10.017Z,23.46
2023-04-24T23:07:15.042Z,23.45
2023-04-24T23:09:20.039Z,23.44
2023-04-24T23:11:25.156Z,23.44
2023-04-24T23:13:30.252Z,23.44
2023-04-24T23:15:35.202Z,23.43
2023-04-24T23:17:40.237Z,23.44
2023-04-24T23:19:45.479Z,23.43
2023-04-24T23:21:50.668Z,23.42
2023-04-24T23:23:55.717Z,23.4
2023-04-24T23:26:00.841Z,23.39
2023-04-24T23:28:05.962Z,23.39
2023-04-24T23:30:11.076Z,23.38
2023-04-24T23:32:16.188Z,23.36
2023-04-24T23:34:21.607Z,23.35
2023-04-24T23:36:26.661Z,23.35
2023-04-24T23:38:39.871Z,23.36
2023-04-24T23:40:54.427Z,23.36
2023-04-24T23:43:06.637Z,23.33
2023-04-24T23:45:12.902Z,23.32
2023-04-24T23:47:17.911Z,23.33
2023-04-24T23:49:23.005Z,23.31
2023-04-24T23:51:28.035Z,23.3
2023-04-24T23:53:33.117Z,23.31
2023-04-24T23:55:38.181Z,23.32
2023-04-24T23:57:43.300Z,23.31
2023-04-24T23:59:48.443Z,23.32
